Burlington, NC

10:55 PM EDT die 20o April, anno 2015 (GMT -0400)
Burlington | | Change Station
CLOSE
Current Station
Personal Weather Stations
Location: Burlington, NC
Elevation: 617 ft
Nearby Weather Stations

Elev 617 ft 36.04 °N, 79.51 °W | Updated 4 minutes ago

Overcast
Aequaliter Nubila
63.8 °F
Feels Like 63.8 °F
N
2.0
Ventus Variabilis Ventus from Zephyrus
Gusts 6.0 mph

Hodie
High -- | Low -- °F
--% Chance of Precip.
Yesterday
High -- | Low -- °F
Precip. -- in
6:38 AM 7:55 PM
Waxing Crescent, 7% visible
Pressio 29.68 in
Visibilitas 10.0 milia passuum
Clouds Nubes Dispersae 1500 ft
Plerumque Nubila 2600 ft
Aequaliter Nubila 6500 ft
Frigus in quo Ros apparet 61 °F
Umor 90%
Rainfall 0.00 in
Snow Depth Not available.
UV 0 out of 12
Pollen 9.40 out of 12
Air Quality Not available.
Flu Activity Sporadic
SPECI KBUY 210243Z AUTO 25010KT 10SM SCT015 BKN026 OVC065 18/15 A2968 RMK AO2 T01780150

More Conditions Fewer Conditions

Pressio 29.68 in
Visibilitas 10.0 milia passuum
Clouds Nubes Dispersae 1500 ft
Plerumque Nubila 2600 ft
Aequaliter Nubila 6500 ft
Frigus in quo Ros apparet 61 °F
Umor 90%
Rainfall 0.00 in
Snow Depth Not available.
UV 0 out of 12
Pollen 9.40 out of 12
Air Quality Not available.
Flu Activity Sporadic
SPECI KBUY 210243Z AUTO 25010KT 10SM SCT015 BKN026 OVC065 18/15 A2968 RMK AO2 T01780150

More Conditions Fewer Conditions

The Storm Prediction Center has issued an enhanced risk of severe weather for parts of the Mid-Atlantic and Northeast, including Washington, D.C. Isolated tornadoes cannot be ruled out, but the biggest threat will come from strong thunderstorms producing strong winds and large hail. Tornado Watches are also posted for parts of Georgia, South Carolina, and North Carolina.

10-Day Weather Forecast

Almanac

Astronomy

Apr. 20, 2015 Rise Set
Actual Time
Civil Twilight
Nautical Twilight
Astronomical Twilight
Moon
Length Of Visible Light
Length of Day
Tomorrow will be .
, % of the Moon is Illuminated

Today's Extremes

State Highs State Lows

Community

WunderPhotos

Upload Photos

1,815,283 photos uploaded!

WunderBlogs® & News

Nearby

Air Quality

  Air Quality AQ Index Pollutant
Not available.

Snow Depth

Station Depth Elevation

Earthquake Activity

City Distance Mag. Time & Date
Minimum magnitude displayed is 2.5.

Coastal Water Temperatures

Locus Calor

Stations

Nearby Weather Stations

Station Location Temp Frigus Venti Frigus in quo Ros apparet Umor Ventus Precip. Elev Renovata Type